Main page
METAR-TAF:

METAR-TAF

Airports :

Milan, Italy

Milan–Malpensa Airport

latitude: 45-37N, longitude: 008-44E, elevation: 234 m

Current weather observation

The report was made 18 minutes ago, at 23:50 UTC
Wind 5 kt from the North
Temperature 4°C
Humidity 75%
Pressure 1018 hPa
Visibility 10 km or more
no clouds below 1500 m and no cumulonimbus

METAR: LIMC 262350Z 01005KT CAVOK 04/M00 Q1018 NOSIG

Time: 01:08 (00:08 UTC)

Forecast

The report was made 1 hour and 8 minutes ago, at 23:00 UTC
Forecast valid from 27 at 00 UTC to 28 at 06 UTC
Wind 5 kt from variable directions
Visibility 10 km or more
no clouds below 1500 m and no cumulonimbus
Temporary
from 27 at 15 UTC to 27 at 24 UTC
Broken clouds at a height of 1000 ft
Broken clouds at a height of 6000 ft
rain

TAF: LIMC 262300Z 2700/2806 VRB05KT CAVOK TEMPO 2715/2724 RA BKN010 BKN060

Weather observations and forecasts of more than 4000 airports (METAR and TAF reports).

The available stations are represented by yellow and red dots on the map.

Hover mouse over dot to see the name of the station.

Then click to see weather observations and forecasts.

To change the map : click on the green buttons with a black cross to zoom in, on the green button with a dash to zoom out, or on the green arrows for adjacent maps.


METAR-TAF: